createdAt,value
2023-03-11T00:01:53.149Z,79.02
2023-03-11T00:04:21.521Z,79.19
2023-03-11T00:06:49.832Z,79.50
2023-03-11T00:09:19.678Z,79.03
2023-03-11T00:11:47.778Z,79.30
2023-03-11T00:14:17.198Z,79.35
2023-03-11T00:16:45.341Z,79.51
2023-03-11T00:19:16.382Z,79.31
2023-03-11T00:21:45.499Z,79.33
2023-03-11T00:24:13.539Z,79.63
2023-03-11T00:26:42.926Z,79.55
2023-03-11T00:29:11.024Z,79.83
2023-03-11T00:31:39.553Z,79.59
2023-03-11T00:34:21.707Z,79.66
2023-03-11T00:36:51.852Z,79.37
2023-03-11T00:39:20.156Z,79.59
2023-03-11T00:41:50.954Z,79.83
2023-03-11T00:44:19.102Z,79.52
2023-03-11T00:46:47.089Z,79.57
2023-03-11T00:49:15.673Z,79.66
2023-03-11T00:51:44.748Z,79.81
2023-03-11T00:54:15.307Z,80.02
2023-03-11T00:56:43.361Z,79.94
2023-03-11T00:59:13.467Z,79.72
2023-03-11T01:01:44.371Z,79.90
2023-03-11T01:04:14.165Z,79.92
2023-03-11T01:06:45.754Z,80.06
2023-03-11T01:09:14.544Z,80.02
2023-03-11T01:11:45.785Z,79.71
2023-03-11T01:14:15.774Z,79.87
2023-03-11T01:16:47.312Z,80.00
2023-03-11T01:19:18.458Z,80.17
2023-03-11T01:21:47.851Z,79.96
2023-03-11T01:24:16.319Z,80.07
2023-03-11T01:26:50.245Z,80.01
2023-03-11T01:29:19.381Z,80.13
2023-03-11T01:31:47.813Z,80.07
2023-03-11T01:34:16.771Z,80.04
2023-03-11T01:36:49.122Z,79.63
2023-03-11T01:39:18.795Z,80.02
2023-03-11T01:41:46.819Z,79.93
2023-03-11T01:44:15.711Z,80.10
2023-03-11T01:46:53.553Z,79.91
2023-03-11T01:49:29.869Z,79.76
2023-03-11T01:52:06.086Z,79.70
2023-03-11T01:54:37.789Z,79.73
2023-03-11T01:57:08.343Z,79.94
2023-03-11T01:59:41.115Z,79.88
2023-03-11T02:02:38.927Z,79.87
2023-03-11T02:05:10.223Z,80.07
2023-03-11T02:07:40.549Z,80.12
2023-03-11T02:10:15.434Z,80.36
2023-03-11T02:12:52.354Z,80.31
2023-03-11T02:15:26.634Z,80.13
2023-03-11T02:17:56.785Z,80.52
2023-03-11T02:20:49.367Z,80.48
2023-03-11T02:23:26.439Z,80.49
2023-03-11T02:26:02.685Z,80.64
2023-03-11T02:28:34.613Z,80.44
2023-03-11T02:31:03.780Z,80.39
2023-03-11T02:33:32.891Z,80.59
2023-03-11T02:36:07.488Z,80.52
2023-03-11T02:38:37.272Z,80.66
2023-03-11T02:41:05.919Z,80.74
2023-03-11T02:43:42.693Z,80.48
2023-03-11T02:46:11.126Z,80.48
2023-03-11T02:48:40.033Z,80.60
2023-03-11T02:51:08.098Z,80.77
2023-03-11T02:53:46.974Z,81.02
2023-03-11T02:56:16.038Z,80.72
2023-03-11T02:58:44.338Z,80.58
2023-03-11T03:01:13.099Z,80.78
2023-03-11T03:03:42.946Z,80.80
2023-03-11T03:06:13.006Z,80.91
2023-03-11T03:08:42.536Z,81.18
2023-03-11T03:11:10.623Z,80.96
2023-03-11T03:13:38.797Z,80.96
2023-03-11T03:16:07.099Z,81.06
2023-03-11T03:18:35.313Z,80.93
2023-03-11T03:21:04.617Z,81.22
2023-03-11T03:23:35.410Z,81.50
2023-03-11T03:26:06.860Z,81.27
2023-03-11T03:28:38.636Z,81.35
2023-03-11T03:31:08.056Z,81.52
2023-03-11T03:33:37.864Z,81.50
2023-03-11T03:36:09.024Z,81.73
2023-03-11T03:38:42.578Z,81.76
2023-03-11T03:41:13.902Z,82.12
2023-03-11T03:43:42.497Z,82.10
2023-03-11T03:46:11.524Z,82.31
2023-03-11T03:48:43.070Z,82.49
2023-03-11T03:51:12.315Z,82.75
2023-03-11T03:53:43.902Z,82.76
2023-03-11T03:56:17.476Z,82.77
2023-03-11T03:58:46.029Z,83.15
2023-03-11T04:01:14.503Z,83.09
2023-03-11T04:03:43.695Z,83.15
2023-03-11T04:06:26.986Z,83.03
2023-03-11T04:09:07.637Z,83.34
2023-03-11T04:11:38.953Z,83.48
2023-03-11T04:14:08.345Z,83.58
2023-03-11T04:16:40.820Z,83.85
2023-03-11T04:20:24.207Z,83.97
2023-03-11T04:22:54.299Z,83.96
2023-03-11T04:25:24.211Z,84.19
2023-03-11T04:27:52.966Z,84.29
2023-03-11T04:30:21.765Z,84.29
2023-03-11T04:32:55.882Z,84.37
2023-03-11T04:35:28.373Z,84.35
2023-03-11T04:37:56.921Z,84.55
2023-03-11T04:40:25.616Z,84.83
2023-03-11T04:42:54.617Z,84.68
2023-03-11T04:45:23.121Z,84.71
2023-03-11T04:47:51.922Z,84.71
2023-03-11T04:50:20.394Z,84.54
2023-03-11T04:52:48.804Z,84.63
2023-03-11T04:55:16.989Z,85.01
2023-03-11T04:57:45.238Z,85.04
2023-03-11T05:00:15.956Z,84.82
2023-03-11T05:02:48.095Z,84.79
2023-03-11T05:05:17.447Z,84.82
2023-03-11T05:07:49.766Z,84.88
2023-03-11T05:10:22.723Z,84.72
2023-03-11T05:12:55.284Z,84.58
2023-03-11T05:15:25.663Z,84.59
2023-03-11T05:17:55.125Z,84.41
2023-03-11T05:20:23.846Z,84.33
2023-03-11T05:22:52.631Z,84.37
2023-03-11T05:25:21.022Z,83.91
2023-03-11T05:27:50.994Z,83.68
2023-03-11T05:30:20.340Z,83.61
2023-03-11T05:32:49.301Z,83.61
2023-03-11T05:35:18.999Z,83.47
2023-03-11T05:37:49.873Z,82.97
2023-03-11T05:40:20.880Z,82.93
2023-03-11T05:42:49.317Z,82.94
2023-03-11T05:45:18.351Z,82.99
2023-03-11T05:47:48.331Z,82.62
2023-03-11T05:50:17.162Z,82.23
2023-03-11T05:52:46.086Z,81.91
2023-03-11T05:55:14.432Z,81.64
2023-03-11T05:57:46.908Z,81.42
2023-03-11T06:00:16.005Z,81.12
2023-03-11T06:02:53.013Z,80.88
2023-03-11T06:05:22.264Z,80.62
2023-03-11T06:07:50.953Z,80.81
2023-03-11T06:10:19.268Z,80.39
2023-03-11T06:12:47.787Z,80.64
2023-03-11T06:15:26.825Z,80.44
2023-03-11T06:17:55.322Z,81.00
2023-03-11T06:20:28.658Z,81.16
2023-03-11T06:22:56.990Z,81.05
2023-03-11T06:25:25.063Z,81.09
2023-03-11T06:27:53.744Z,81.42
2023-03-11T06:30:24.235Z,81.18
2023-03-11T06:33:15.727Z,81.05
2023-03-11T06:35:44.622Z,80.89
2023-03-11T06:38:14.406Z,81.00
2023-03-11T06:40:45.191Z,80.75
2023-03-11T06:43:13.419Z,80.73
2023-03-11T06:45:44.664Z,80.89
2023-03-11T06:48:13.352Z,80.61
2023-03-11T06:50:41.846Z,80.16
2023-03-11T06:53:11.075Z,80.11
2023-03-11T06:55:39.633Z,80.15
2023-03-11T06:58:07.905Z,79.59
2023-03-11T07:00:35.965Z,79.43
2023-03-11T07:03:05.254Z,79.22
2023-03-11T07:05:33.644Z,78.84
2023-03-11T07:08:05.549Z,78.77
2023-03-11T07:10:40.986Z,78.81
2023-03-11T07:13:09.737Z,78.49
2023-03-11T07:15:38.253Z,78.18
2023-03-11T07:18:07.468Z,77.91
2023-03-11T07:20:35.591Z,77.94
2023-03-11T07:23:03.606Z,77.17
2023-03-11T07:25:33.395Z,77.30
2023-03-11T07:28:01.597Z,77.36
2023-03-11T07:30:30.332Z,76.99
2023-03-11T07:33:00.475Z,76.57
2023-03-11T07:35:28.780Z,76.93
2023-03-11T07:38:01.237Z,77.14
2023-03-11T07:40:29.729Z,77.19
2023-03-11T07:42:59.284Z,77.21
2023-03-11T07:45:27.736Z,77.36
2023-03-11T07:47:56.902Z,77.52
2023-03-11T07:50:26.192Z,77.62
2023-03-11T07:52:55.435Z,77.63
2023-03-11T07:55:27.262Z,77.61
2023-03-11T07:57:55.527Z,77.46
2023-03-11T08:00:23.622Z,77.36
2023-03-11T08:02:52.406Z,77.47
2023-03-11T08:05:21.038Z,77.25
2023-03-11T08:07:53.055Z,77.41
2023-03-11T08:10:21.837Z,77.80
2023-03-11T08:12:52.712Z,77.77
2023-03-11T08:15:20.980Z,77.71
2023-03-11T08:17:52.129Z,77.90
2023-03-11T08:20:20.662Z,77.93
2023-03-11T08:22:58.053Z,78.01
2023-03-11T08:25:28.550Z,78.38
2023-03-11T08:27:56.654Z,78.69
2023-03-11T08:30:24.926Z,78.78
2023-03-11T08:33:05.196Z,78.94
2023-03-11T08:35:34.009Z,79.47
2023-03-11T08:38:03.520Z,80.12
2023-03-11T08:40:31.585Z,80.31
2023-03-11T08:43:00.275Z,80.32
2023-03-11T08:45:28.425Z,80.45
2023-03-11T08:47:56.594Z,80.42
2023-03-11T08:50:24.911Z,80.58
2023-03-11T08:52:53.014Z,81.11
2023-03-11T08:55:26.041Z,81.73
2023-03-11T08:57:54.927Z,82.00
2023-03-11T09:00:23.982Z,82.22
2023-03-11T09:02:52.304Z,82.66
2023-03-11T09:05:20.613Z,82.95
2023-03-11T09:07:50.897Z,83.54
2023-03-11T09:10:19.189Z,84.07
2023-03-11T09:12:48.549Z,84.67
2023-03-11T09:15:17.774Z,85.30
2023-03-11T09:17:48.638Z,85.68
2023-03-11T09:20:22.328Z,86.17
2023-03-11T09:22:50.383Z,86.59
2023-03-11T09:25:18.313Z,87.25
2023-03-11T09:27:47.006Z,87.76
2023-03-11T09:30:15.357Z,87.92
2023-03-11T09:32:44.433Z,88.01
2023-03-11T09:35:13.475Z,88.30
2023-03-11T09:37:43.491Z,88.47
2023-03-11T09:40:16.806Z,88.69
2023-03-11T09:43:04.946Z,88.66
2023-03-11T09:45:35.853Z,88.78
2023-03-11T09:48:18.418Z,89.09
2023-03-11T09:50:49.145Z,89.64
2023-03-11T09:53:36.824Z,89.84
2023-03-11T09:56:07.342Z,90.10
2023-03-11T09:58:55.441Z,90.78
2023-03-11T10:01:53.244Z,91.34
2023-03-11T10:04:50.239Z,91.61
2023-03-11T10:07:27.560Z,91.86
2023-03-11T10:10:02.482Z,92.37
2023-03-11T10:12:49.073Z,92.95
2023-03-11T10:15:39.472Z,92.99
2023-03-11T10:18:49.012Z,93.33
2023-03-11T10:24:33.500Z,94.28
2023-03-11T10:27:03.690Z,94.25
2023-03-11T10:30:09.194Z,94.20
2023-03-11T10:32:42.540Z,94.71
2023-03-11T10:35:17.369Z,94.98
2023-03-11T10:37:53.204Z,94.87
2023-03-11T10:40:33.498Z,95.05
2023-03-11T10:43:09.959Z,95.05
2023-03-11T10:45:43.958Z,95.28
2023-03-11T10:48:13.549Z,95.45
2023-03-11T10:50:48.215Z,95.40
2023-03-11T10:53:18.640Z,95.74
2023-03-11T10:55:51.726Z,95.86
2023-03-11T10:58:33.896Z,95.57
2023-03-11T11:01:04.199Z,95.38
2023-03-11T11:03:32.337Z,95.96
2023-03-11T11:06:06.540Z,96.21
2023-03-11T11:08:36.049Z,96.21
2023-03-11T11:11:20.377Z,95.90
2023-03-11T11:14:00.687Z,96.25
2023-03-11T11:16:29.253Z,96.36
2023-03-11T11:19:11.996Z,96.18
2023-03-11T11:21:44.101Z,96.18
2023-03-11T11:24:21.065Z,95.86
2023-03-11T11:27:11.468Z,96.20
2023-03-11T11:29:40.178Z,95.85
2023-03-11T11:32:24.081Z,95.88
2023-03-11T11:35:00.690Z,95.94
2023-03-11T11:37:35.484Z,96.16
2023-03-11T11:40:12.190Z,96.06
2023-03-11T11:42:42.419Z,95.71
2023-03-11T11:45:15.560Z,95.86
2023-03-11T11:47:48.993Z,96.51
2023-03-11T11:50:35.664Z,96.25
2023-03-11T11:53:24.079Z,96.07
2023-03-11T11:55:54.365Z,96.31
2023-03-11T11:58:23.234Z,96.57
2023-03-11T12:01:16.696Z,96.67
2023-03-11T12:04:21.098Z,96.77
2023-03-11T12:07:09.479Z,96.90
2023-03-11T12:10:22.237Z,97.28
2023-03-11T12:13:17.645Z,97.55
2023-03-11T12:15:58.531Z,97.28
2023-03-11T12:18:37.814Z,97.02
2023-03-11T12:21:23.908Z,97.59
2023-03-11T12:24:23.724Z,97.74
2023-03-11T12:26:52.557Z,97.51
2023-03-11T12:29:35.489Z,97.47
2023-03-11T12:32:05.171Z,97.97
2023-03-11T12:34:34.560Z,98.23
2023-03-11T12:37:03.732Z,98.10
2023-03-11T12:39:36.751Z,98.19
2023-03-11T12:42:11.003Z,98.56
2023-03-11T12:44:41.424Z,99.03
2023-03-11T12:47:24.231Z,98.88
2023-03-11T12:49:57.374Z,98.97
2023-03-11T12:52:27.768Z,99.03
2023-03-11T12:54:56.895Z,98.90
2023-03-11T12:58:02.178Z,98.60
2023-03-11T13:01:18.696Z,98.74
2023-03-11T13:03:56.912Z,99.35
2023-03-11T13:07:07.814Z,99.53
2023-03-11T13:09:36.144Z,99.10
2023-03-11T13:12:23.942Z,99.27
2023-03-11T13:15:18.823Z,99.57
2023-03-11T13:18:16.386Z,99.30
2023-03-11T13:20:49.326Z,99.17
2023-03-11T13:23:23.277Z,99.53
2023-03-11T13:25:51.787Z,99.94
2023-03-11T13:28:36.993Z,99.71
2023-03-11T13:31:14.915Z,99.62
2023-03-11T13:34:14.081Z,99.83
2023-03-11T13:36:56.605Z,99.90
2023-03-11T13:40:04.291Z,99.71
2023-03-11T13:42:43.722Z,99.78
2023-03-11T13:45:22.658Z,100.00
2023-03-11T13:47:53.830Z,100.00
2023-03-11T13:50:28.380Z,100.00
2023-03-11T13:52:57.643Z,100.00
2023-03-11T13:58:24.645Z,100.00
2023-03-11T14:01:02.462Z,100.00
2023-03-11T14:03:37.628Z,100.00
2023-03-11T14:06:15.689Z,100.00
2023-03-11T14:08:55.892Z,100.00
2023-03-11T14:11:29.380Z,100.00
2023-03-11T14:14:02.639Z,100.00
2023-03-11T14:16:44.754Z,100.00
2023-03-11T14:19:17.674Z,100.00
2023-03-11T14:21:51.415Z,100.00
2023-03-11T14:24:25.764Z,100.00
2023-03-11T14:26:57.228Z,100.00
2023-03-11T14:29:32.850Z,100.00
2023-03-11T14:32:32.326Z,100.00
2023-03-11T14:35:01.181Z,100.00
2023-03-11T14:37:32.897Z,100.00
2023-03-11T14:40:01.206Z,100.00
2023-03-11T14:42:39.072Z,100.00
2023-03-11T14:45:18.952Z,100.00
2023-03-11T14:48:04.094Z,100.00
2023-03-11T14:50:35.967Z,100.00
2023-03-11T14:53:25.712Z,100.00
2023-03-11T14:56:02.133Z,100.00
2023-03-11T14:58:40.083Z,100.00
2023-03-11T15:01:18.260Z,100.00
2023-03-11T15:04:09.147Z,100.00
2023-03-11T15:06:38.936Z,100.00
2023-03-11T15:09:14.019Z,100.00
2023-03-11T15:11:55.674Z,100.00
2023-03-11T15:14:33.149Z,100.00
2023-03-11T15:17:34.005Z,100.00
2023-03-11T15:20:22.477Z,100.00
2023-03-11T15:23:04.154Z,100.00
2023-03-11T15:25:35.172Z,100.00
2023-03-11T15:28:26.153Z,100.00
2023-03-11T15:31:22.142Z,100.00
2023-03-11T15:33:53.880Z,100.00
2023-03-11T15:36:41.476Z,100.00
2023-03-11T15:39:25.216Z,100.00
2023-03-11T15:42:09.577Z,100.00
2023-03-11T15:44:43.919Z,100.00
2023-03-11T15:47:18.430Z,100.00
2023-03-11T15:49:46.599Z,100.00
2023-03-11T15:52:15.181Z,100.00
2023-03-11T15:54:54.695Z,100.00
2023-03-11T15:57:26.646Z,100.00
2023-03-11T15:59:56.126Z,100.00
2023-03-11T16:02:28.546Z,100.00
2023-03-11T16:04:59.545Z,100.00
2023-03-11T16:07:39.207Z,100.00
2023-03-11T16:10:09.144Z,100.00
2023-03-11T16:12:44.996Z,100.00
2023-03-11T16:15:26.584Z,100.00
2023-03-11T16:18:00.188Z,100.00
2023-03-11T16:20:48.267Z,100.00
2023-03-11T16:23:26.937Z,100.00
2023-03-11T16:25:58.340Z,100.00
2023-03-11T16:28:27.733Z,100.00
2023-03-11T16:30:56.109Z,100.00
2023-03-11T16:33:25.178Z,100.00
2023-03-11T16:38:25.848Z,100.00
2023-03-11T16:40:57.742Z,100.00
2023-03-11T16:43:28.155Z,100.00
2023-03-11T16:45:56.642Z,100.00
2023-03-11T16:48:24.765Z,100.00
2023-03-11T16:50:53.657Z,100.00
2023-03-11T16:53:22.271Z,100.00
2023-03-11T16:55:53.200Z,100.00
2023-03-11T16:58:21.460Z,100.00
2023-03-11T17:00:49.639Z,100.00
2023-03-11T17:03:21.512Z,100.00
2023-03-11T17:05:51.390Z,100.00
2023-03-11T17:08:25.296Z,100.00
2023-03-11T17:10:55.137Z,100.00
2023-03-11T17:13:23.200Z,100.00
2023-03-11T17:15:59.359Z,100.00
2023-03-11T17:18:42.960Z,100.00
2023-03-11T17:21:12.942Z,100.00
2023-03-11T17:23:41.283Z,100.00
2023-03-11T17:26:14.635Z,100.00
2023-03-11T17:28:43.507Z,100.00
2023-03-11T17:31:13.192Z,100.00
2023-03-11T17:33:44.675Z,100.00
2023-03-11T17:36:14.386Z,100.00
2023-03-11T17:38:46.569Z,100.00
2023-03-11T17:41:16.278Z,100.00
2023-03-11T17:43:44.605Z,100.00
2023-03-11T17:46:15.520Z,100.00
2023-03-11T17:48:45.186Z,100.00
2023-03-11T17:51:22.014Z,100.00
2023-03-11T17:53:50.134Z,100.00
2023-03-11T17:56:21.659Z,100.00
2023-03-11T17:58:50.078Z,100.00
2023-03-11T18:01:23.500Z,100.00
2023-03-11T18:03:51.874Z,100.00
2023-03-11T18:06:20.072Z,100.00
2023-03-11T18:08:48.115Z,100.00
2023-03-11T18:11:20.676Z,100.00
2023-03-11T18:13:48.870Z,100.00
2023-03-11T18:16:19.584Z,100.00
2023-03-11T18:18:52.484Z,100.00
2023-03-11T18:21:29.023Z,100.00
2023-03-11T18:24:01.853Z,100.00
2023-03-11T18:26:31.528Z,100.00
2023-03-11T18:30:19.191Z,100.00
2023-03-11T18:33:01.352Z,100.00
2023-03-11T18:35:28.873Z,100.00
2023-03-11T18:37:58.533Z,100.00
2023-03-11T18:40:27.416Z,100.00
2023-03-11T18:42:54.080Z,100.00
2023-03-11T18:45:21.805Z,100.00
2023-03-11T18:47:49.362Z,100.00
2023-03-11T18:50:17.001Z,100.00
2023-03-11T18:52:43.937Z,100.00
2023-03-11T18:55:10.623Z,100.00
2023-03-11T18:57:41.089Z,100.00
2023-03-11T19:00:08.711Z,100.00
2023-03-11T19:02:36.395Z,100.00
2023-03-11T19:05:03.846Z,100.00
2023-03-11T19:07:30.734Z,100.00
2023-03-11T19:09:58.933Z,100.00
2023-03-11T19:12:29.152Z,100.00
2023-03-11T19:14:56.965Z,100.00
2023-03-11T19:17:23.836Z,100.00
2023-03-11T19:19:51.916Z,100.00
2023-03-11T19:22:18.933Z,100.00
2023-03-11T19:24:56.102Z,100.00
2023-03-11T19:27:23.823Z,100.00
2023-03-11T19:29:50.922Z,100.00
2023-03-11T19:32:19.100Z,100.00
2023-03-11T19:34:45.886Z,100.00
2023-03-11T19:37:12.630Z,100.00
2023-03-11T19:39:39.677Z,100.00
2023-03-11T19:42:06.635Z,100.00
2023-03-11T19:44:34.244Z,100.00
2023-03-11T19:47:00.981Z,100.00
2023-03-11T19:49:27.982Z,100.00
2023-03-11T19:51:56.923Z,100.00
2023-03-11T19:54:23.875Z,100.00
2023-03-11T19:56:50.961Z,100.00
2023-03-11T19:59:18.550Z,100.00
2023-03-11T20:01:45.282Z,100.00
2023-03-11T20:04:14.350Z,100.00
2023-03-11T20:06:41.208Z,100.00
2023-03-11T20:09:15.547Z,100.00
2023-03-11T20:11:42.635Z,100.00
2023-03-11T20:14:11.068Z,100.00
2023-03-11T20:16:37.896Z,100.00
2023-03-11T20:19:04.846Z,100.00
2023-03-11T20:21:32.474Z,100.00
2023-03-11T20:23:59.541Z,100.00
2023-03-11T20:26:27.032Z,100.00
2023-03-11T20:28:56.854Z,100.00
2023-03-11T20:31:25.674Z,100.00
2023-03-11T20:33:52.594Z,100.00
2023-03-11T20:36:24.761Z,100.00
2023-03-11T20:38:52.426Z,100.00
2023-03-11T20:41:19.252Z,100.00
2023-03-11T20:43:46.360Z,100.00
2023-03-11T20:46:16.233Z,100.00
2023-03-11T20:48:46.435Z,100.00
2023-03-11T20:51:15.996Z,100.00
2023-03-11T20:53:46.521Z,100.00
2023-03-11T20:56:15.517Z,100.00
2023-03-11T20:58:43.079Z,100.00
2023-03-11T21:01:15.687Z,100.00
2023-03-11T21:03:43.368Z,100.00
2023-03-11T21:06:15.032Z,100.00
2023-03-11T21:08:41.728Z,100.00
2023-03-11T21:11:08.442Z,100.00
2023-03-11T21:13:35.437Z,100.00
2023-03-11T21:16:04.723Z,100.00
2023-03-11T21:18:33.194Z,100.00
2023-03-11T21:20:59.931Z,100.00
2023-03-11T21:23:29.492Z,100.00
2023-03-11T21:25:58.387Z,100.00
2023-03-11T21:28:26.303Z,100.00
2023-03-11T21:31:14.343Z,100.00
2023-03-11T21:33:41.479Z,100.00
2023-03-11T21:36:12.107Z,100.00
2023-03-11T21:38:40.035Z,100.00
2023-03-11T21:41:10.206Z,100.00
2023-03-11T21:43:37.941Z,100.00
2023-03-11T21:46:05.122Z,100.00
2023-03-11T21:48:32.468Z,100.00
2023-03-11T21:50:59.323Z,100.00
2023-03-11T21:53:26.322Z,100.00
2023-03-11T21:55:53.122Z,100.00
2023-03-11T21:58:19.824Z,100.00
2023-03-11T22:00:47.078Z,100.00
2023-03-11T22:03:13.985Z,100.00
2023-03-11T22:05:41.728Z,99.92
2023-03-11T22:08:13.955Z,100.00
2023-03-11T22:10:43.872Z,99.73
2023-03-11T22:13:14.200Z,99.56
2023-03-11T22:15:42.433Z,99.84
2023-03-11T22:18:10.131Z,99.92
2023-03-11T22:20:37.654Z,99.57
2023-03-11T22:23:04.519Z,99.43
2023-03-11T22:25:33.443Z,99.28
2023-03-11T22:28:00.520Z,99.46
2023-03-11T22:30:27.249Z,99.05
2023-03-11T22:32:56.238Z,98.76
2023-03-11T22:35:24.734Z,99.11
2023-03-11T22:37:51.546Z,99.38
2023-03-11T22:40:18.476Z,99.17
2023-03-11T22:42:45.421Z,98.79
2023-03-11T22:45:14.909Z,98.61
2023-03-11T22:47:42.560Z,98.34
2023-03-11T22:50:09.834Z,98.53
2023-03-11T22:52:37.645Z,98.36
2023-03-11T22:55:04.805Z,98.49
2023-03-11T22:57:38.267Z,98.14
2023-03-11T23:00:21.256Z,97.64
2023-03-11T23:02:52.243Z,97.09
2023-03-11T23:05:19.855Z,97.33
2023-03-11T23:07:48.966Z,97.29
2023-03-11T23:10:21.568Z,97.85
2023-03-11T23:12:49.002Z,98.29
2023-03-11T23:15:18.909Z,98.48
2023-03-11T23:17:47.253Z,98.19
2023-03-11T23:20:14.564Z,98.34
2023-03-11T23:22:41.504Z,98.61
2023-03-11T23:25:14.367Z,98.36
2023-03-11T23:27:42.386Z,98.36
2023-03-11T23:30:10.725Z,98.62
2023-03-11T23:32:37.802Z,98.99
2023-03-11T23:35:05.891Z,98.71
2023-03-11T23:37:32.637Z,98.99
2023-03-11T23:39:59.542Z,98.98
2023-03-11T23:42:26.575Z,99.14
2023-03-11T23:44:56.811Z,99.12
2023-03-11T23:47:25.735Z,98.39
2023-03-11T23:49:52.651Z,98.59
2023-03-11T23:52:19.974Z,98.60
2023-03-11T23:54:47.052Z,98.53
2023-03-11T23:57:13.640Z,98.62
2023-03-11T23:59:42.788Z,98.90
